createdAt,value
2022-09-14T00:00:15.273Z,15.60
2022-09-14T00:03:09.088Z,15.60
2022-09-14T00:05:44.117Z,15.52
2022-09-14T00:08:18.577Z,15.50
2022-09-14T00:10:52.373Z,15.50
2022-09-14T00:13:26.331Z,15.48
2022-09-14T00:16:03.692Z,15.40
2022-09-14T00:18:38.412Z,15.40
2022-09-14T00:21:14.886Z,15.30
2022-09-14T00:23:48.669Z,15.30
2022-09-14T00:26:25.773Z,15.20
2022-09-14T00:29:04.468Z,15.20
2022-09-14T00:31:40.902Z,15.20
2022-09-14T00:34:18.562Z,15.20
2022-09-14T00:36:54.209Z,15.20
2022-09-14T00:39:29.281Z,15.14
2022-09-14T00:42:03.162Z,15.20
2022-09-14T00:45:08.354Z,15.20
2022-09-14T00:47:43.383Z,15.12
2022-09-14T00:50:18.366Z,15.10
2022-09-14T00:52:54.632Z,15.10
2022-09-14T00:55:29.062Z,15.18
2022-09-14T00:58:03.313Z,15.20
2022-09-14T01:00:37.052Z,15.16
2022-09-14T01:03:10.651Z,15.12
2022-09-14T01:06:01.507Z,15.10
2022-09-14T01:08:58.550Z,15.10
2022-09-14T01:11:52.354Z,15.00
2022-09-14T01:14:41.870Z,15.00
2022-09-14T01:17:25.354Z,15.00
2022-09-14T01:20:17.307Z,15.00
2022-09-14T01:23:01.594Z,15.00
2022-09-14T01:26:00.367Z,15.00
2022-09-14T01:28:42.874Z,15.00
2022-09-14T01:31:28.523Z,15.00
2022-09-14T01:34:14.084Z,15.00
2022-09-14T01:36:56.312Z,15.02
2022-09-14T01:39:35.689Z,15.10
2022-09-14T01:42:12.021Z,15.10
2022-09-14T01:44:52.246Z,15.10
2022-09-14T01:47:32.973Z,15.08
2022-09-14T01:50:14.125Z,15.10
2022-09-14T01:52:56.020Z,15.10
2022-09-14T01:55:34.773Z,15.10
2022-09-14T01:58:14.147Z,15.10
2022-09-14T02:00:51.724Z,15.10
2022-09-14T02:03:31.548Z,15.10
2022-09-14T02:06:16.686Z,15.16
2022-09-14T02:08:51.301Z,15.20
2022-09-14T02:11:25.523Z,15.20
2022-09-14T02:13:59.685Z,15.20
2022-09-14T02:16:33.722Z,15.12
2022-09-14T02:19:07.881Z,15.10
2022-09-14T02:21:44.118Z,15.10
2022-09-14T02:24:18.479Z,15.00
2022-09-14T02:26:55.662Z,15.00
2022-09-14T02:29:29.677Z,14.90
2022-09-14T02:32:19.143Z,14.90
2022-09-14T02:35:04.851Z,14.92
2022-09-14T02:37:49.789Z,14.90
2022-09-14T02:40:36.159Z,14.90
2022-09-14T02:43:28.136Z,15.00
2022-09-14T02:46:14.710Z,15.00
2022-09-14T02:48:59.299Z,15.02
2022-09-14T02:51:39.750Z,15.10
2022-09-14T02:54:23.794Z,15.10
2022-09-14T02:57:00.734Z,15.10
2022-09-14T02:59:34.836Z,15.10
2022-09-14T03:02:09.276Z,15.10
2022-09-14T03:04:43.002Z,15.00
2022-09-14T03:07:17.142Z,14.98
2022-09-14T03:09:51.358Z,14.90
2022-09-14T03:12:25.210Z,14.90
2022-09-14T03:14:59.202Z,14.90
2022-09-14T03:17:32.804Z,14.88
2022-09-14T03:20:08.223Z,14.80
2022-09-14T03:22:41.820Z,14.80
2022-09-14T03:25:16.057Z,14.80
2022-09-14T03:27:54.860Z,14.80
2022-09-14T03:30:29.293Z,14.90
2022-09-14T03:33:05.165Z,14.90
2022-09-14T03:35:39.347Z,14.90
2022-09-14T03:38:13.372Z,14.90
2022-09-14T03:40:47.162Z,14.90
2022-09-14T03:43:21.806Z,14.84
2022-09-14T03:45:55.588Z,14.80
2022-09-14T03:48:30.354Z,14.76
2022-09-14T03:51:07.729Z,14.70
2022-09-14T03:53:43.399Z,14.70
2022-09-14T03:56:21.302Z,14.64
2022-09-14T03:58:55.614Z,14.64
2022-09-14T04:01:30.416Z,14.60
2022-09-14T04:04:04.898Z,14.60
2022-09-14T04:06:38.795Z,14.50
2022-09-14T04:09:13.407Z,14.50
2022-09-14T04:11:47.932Z,14.40
2022-09-14T04:14:21.947Z,14.38
2022-09-14T04:16:55.667Z,14.30
2022-09-14T04:19:29.616Z,14.30
2022-09-14T04:22:03.419Z,14.30
2022-09-14T04:24:37.929Z,14.30
2022-09-14T04:27:11.641Z,14.30
2022-09-14T04:29:45.690Z,14.30
2022-09-14T04:32:20.954Z,14.30
2022-09-14T04:34:54.627Z,14.40
2022-09-14T04:37:31.726Z,14.40
2022-09-14T04:40:06.365Z,14.40
2022-09-14T04:42:40.242Z,14.50
2022-09-14T04:45:15.541Z,14.50
2022-09-14T04:47:49.190Z,14.50
2022-09-14T04:50:23.160Z,14.58
2022-09-14T04:52:59.203Z,14.54
2022-09-14T04:55:33.495Z,14.50
2022-09-14T04:58:07.680Z,14.50
2022-09-14T05:00:41.563Z,14.50
2022-09-14T05:03:15.298Z,14.50
2022-09-14T05:05:49.293Z,14.60
2022-09-14T05:08:23.065Z,14.60
2022-09-14T05:11:01.988Z,14.60
2022-09-14T05:13:36.241Z,14.60
2022-09-14T05:16:19.751Z,14.60
2022-09-14T05:18:57.763Z,14.60
2022-09-14T05:21:33.408Z,14.70
2022-09-14T05:24:15.032Z,14.70
2022-09-14T05:26:57.028Z,14.80
2022-09-14T05:29:34.121Z,14.90
2022-09-14T05:32:13.647Z,14.94
2022-09-14T05:34:47.573Z,15.00
2022-09-14T05:37:21.279Z,15.10
2022-09-14T05:39:55.307Z,15.20
2022-09-14T05:42:29.892Z,15.20
2022-09-14T05:45:03.751Z,15.30
2022-09-14T05:47:39.244Z,15.40
2022-09-14T05:50:14.959Z,15.50
2022-09-14T05:52:49.178Z,15.60
2022-09-14T05:55:25.408Z,15.60
2022-09-14T05:57:59.305Z,15.60
2022-09-14T06:00:33.524Z,15.70
2022-09-14T06:03:07.933Z,15.80
2022-09-14T06:05:41.789Z,15.82
2022-09-14T06:08:15.543Z,15.90
2022-09-14T06:10:49.269Z,16.00
2022-09-14T06:13:23.544Z,16.10
2022-09-14T06:15:57.688Z,16.20
2022-09-14T06:18:32.878Z,16.30
2022-09-14T06:21:09.683Z,16.40
2022-09-14T06:23:44.297Z,16.40
2022-09-14T06:26:18.947Z,16.50
2022-09-14T06:28:55.225Z,16.60
2022-09-14T06:31:29.388Z,16.70
2022-09-14T06:34:04.624Z,16.80
2022-09-14T06:36:39.585Z,16.80
2022-09-14T06:39:13.678Z,16.90
2022-09-14T06:41:47.646Z,17.00
2022-09-14T06:44:27.769Z,17.10
2022-09-14T06:47:02.933Z,17.20
2022-09-14T06:49:37.430Z,17.30
2022-09-14T06:52:11.895Z,17.40
2022-09-14T06:54:47.018Z,17.40
2022-09-14T06:57:21.566Z,17.46
2022-09-14T06:59:56.031Z,17.50
2022-09-14T07:02:30.265Z,17.60
2022-09-14T07:05:05.726Z,17.70
2022-09-14T07:07:45.232Z,17.80
2022-09-14T07:10:21.638Z,17.80
2022-09-14T07:12:56.142Z,17.98
2022-09-14T07:15:30.835Z,18.08
2022-09-14T07:18:06.020Z,18.10
2022-09-14T07:20:41.802Z,18.10
2022-09-14T07:23:16.766Z,18.20
2022-09-14T07:26:01.316Z,18.30
2022-09-14T07:28:36.104Z,18.50
2022-09-14T07:31:21.438Z,18.60
2022-09-14T07:34:00.101Z,18.66
2022-09-14T07:36:36.677Z,18.80
2022-09-14T07:39:15.067Z,18.90
2022-09-14T07:41:51.400Z,19.00
2022-09-14T07:44:25.887Z,19.00
2022-09-14T07:47:02.876Z,19.02
2022-09-14T07:49:37.179Z,19.10
2022-09-14T07:52:14.818Z,19.30
2022-09-14T07:54:49.506Z,19.50
2022-09-14T07:57:34.105Z,19.60
2022-09-14T08:00:21.281Z,19.60
2022-09-14T08:02:58.270Z,19.76
2022-09-14T08:05:32.617Z,19.80
2022-09-14T08:08:07.398Z,19.80
2022-09-14T08:10:41.571Z,19.90
2022-09-14T08:13:15.913Z,19.94
2022-09-14T08:15:50.019Z,20.10
2022-09-14T08:18:26.089Z,20.16
2022-09-14T08:21:04.597Z,20.30
2022-09-14T08:23:39.782Z,20.40
2022-09-14T08:26:18.270Z,20.40
2022-09-14T08:28:55.632Z,20.40
2022-09-14T08:31:32.515Z,20.50
2022-09-14T08:34:08.904Z,20.62
2022-09-14T08:36:47.558Z,20.90
2022-09-14T08:39:23.369Z,21.00
2022-09-14T08:42:02.070Z,21.10
2022-09-14T08:44:44.798Z,21.18
2022-09-14T08:47:28.113Z,21.28
2022-09-14T08:50:12.916Z,21.26
2022-09-14T08:52:55.144Z,21.30
2022-09-14T08:55:47.725Z,21.50
2022-09-14T08:58:47.706Z,21.40
2022-09-14T09:01:36.539Z,21.58
2022-09-14T09:04:34.268Z,21.60
2022-09-14T09:07:20.243Z,21.60
2022-09-14T09:09:57.651Z,21.58
2022-09-14T09:12:40.712Z,21.60
2022-09-14T09:15:28.139Z,21.60
2022-09-14T09:18:08.841Z,21.60
2022-09-14T09:20:50.725Z,21.78
2022-09-14T09:23:31.275Z,21.82
2022-09-14T09:26:13.643Z,22.00
2022-09-14T09:28:58.262Z,22.10
2022-09-14T09:31:38.198Z,22.26
2022-09-14T09:34:46.227Z,22.30
2022-09-14T09:37:40.865Z,22.40
2022-09-14T09:40:28.923Z,22.30
2022-09-14T09:43:28.998Z,22.30
2022-09-14T09:46:15.412Z,22.34
2022-09-14T09:48:50.947Z,22.58
2022-09-14T09:51:34.389Z,22.50
2022-09-14T09:54:24.739Z,22.40
2022-09-14T09:57:02.380Z,22.40
2022-09-14T09:59:43.174Z,22.30
2022-09-14T10:02:29.282Z,22.22
2022-09-14T10:05:26.832Z,22.00
2022-09-14T10:08:11.237Z,22.10
2022-09-14T10:10:47.575Z,22.40
2022-09-14T10:13:36.460Z,22.40
2022-09-14T10:16:19.946Z,22.40
2022-09-14T10:18:55.624Z,22.60
2022-09-14T10:21:36.759Z,22.54
2022-09-14T10:24:21.973Z,22.60
2022-09-14T10:26:55.930Z,22.62
2022-09-14T10:29:42.984Z,22.70
2022-09-14T10:32:24.436Z,22.70
2022-09-14T10:34:59.640Z,22.70
2022-09-14T10:37:41.908Z,22.70
2022-09-14T10:40:25.307Z,22.60
2022-09-14T10:43:14.415Z,22.48
2022-09-14T10:45:57.993Z,22.40
2022-09-14T10:49:14.423Z,22.36
2022-09-14T10:52:00.759Z,22.38
2022-09-14T10:55:08.822Z,22.30
2022-09-14T10:57:58.538Z,22.30
2022-09-14T11:00:44.168Z,22.40
2022-09-14T11:03:43.990Z,22.60
2022-09-14T11:06:35.622Z,22.50
2022-09-14T11:09:23.122Z,22.50
2022-09-14T11:12:10.607Z,22.40
2022-09-14T11:15:01.045Z,22.40
2022-09-14T11:18:09.130Z,22.30
2022-09-14T11:21:10.482Z,22.20
2022-09-14T11:23:54.431Z,22.30
2022-09-14T11:26:39.189Z,22.28
2022-09-14T11:29:32.777Z,22.20
2022-09-14T11:32:21.461Z,22.14
2022-09-14T11:35:04.243Z,22.10
2022-09-14T11:37:44.435Z,22.20
2022-09-14T11:40:33.315Z,22.40
2022-09-14T11:43:16.155Z,22.40
2022-09-14T11:45:56.175Z,22.50
2022-09-14T11:48:42.654Z,22.50
2022-09-14T11:51:24.210Z,22.48
2022-09-14T11:53:59.225Z,22.50
2022-09-14T11:56:36.456Z,22.70
2022-09-14T11:59:36.378Z,22.80
2022-09-14T12:03:07.368Z,22.90
2022-09-14T12:05:46.820Z,23.20
2022-09-14T12:08:43.947Z,23.30
2022-09-14T12:11:42.099Z,23.50
2022-09-14T12:14:36.089Z,23.40
2022-09-14T12:17:40.774Z,23.40
2022-09-14T12:20:49.233Z,23.30
2022-09-14T12:23:32.112Z,23.20
2022-09-14T12:26:31.184Z,23.10
2022-09-14T12:29:37.497Z,23.10
2022-09-14T12:32:40.894Z,23.20
2022-09-14T12:35:48.026Z,23.38
2022-09-14T12:39:10.635Z,23.52
2022-09-14T12:42:28.648Z,23.60
2022-09-14T12:45:39.893Z,23.70
2022-09-14T12:48:34.380Z,23.80
2022-09-14T12:51:11.308Z,24.00
2022-09-14T12:53:48.758Z,24.30
2022-09-14T12:56:35.121Z,24.52
2022-09-14T12:59:23.098Z,24.54
2022-09-14T13:02:16.946Z,24.30
2022-09-14T13:05:02.509Z,24.20
2022-09-14T13:07:41.135Z,24.00
2022-09-14T13:10:28.856Z,23.80
2022-09-14T13:13:18.765Z,23.70
2022-09-14T13:16:00.182Z,23.60
2022-09-14T13:18:39.631Z,23.68
2022-09-14T13:21:25.392Z,23.90
2022-09-14T13:23:59.556Z,24.10
2022-09-14T13:26:35.350Z,24.44
2022-09-14T13:29:12.514Z,24.98
2022-09-14T13:31:48.960Z,25.40
2022-09-14T13:34:28.772Z,25.80
2022-09-14T13:37:06.959Z,25.90
2022-09-14T13:39:42.619Z,25.80
2022-09-14T13:42:19.325Z,25.60
2022-09-14T13:44:55.618Z,25.30
2022-09-14T13:47:30.582Z,25.00
2022-09-14T13:50:07.270Z,24.70
2022-09-14T13:53:01.287Z,24.50
2022-09-14T13:55:52.553Z,24.16
2022-09-14T13:58:35.024Z,23.72
2022-09-14T14:01:10.561Z,23.50
2022-09-14T14:03:51.054Z,23.40
2022-09-14T14:06:38.390Z,23.30
2022-09-14T14:09:14.913Z,23.30
2022-09-14T14:11:56.747Z,23.40
2022-09-14T14:14:31.798Z,23.50
2022-09-14T14:17:36.935Z,23.60
2022-09-14T14:20:39.593Z,23.80
2022-09-14T14:23:26.117Z,24.00
2022-09-14T14:26:14.584Z,24.10
2022-09-14T14:28:49.618Z,24.10
2022-09-14T14:31:26.450Z,24.00
2022-09-14T14:34:01.442Z,23.70
2022-09-14T14:36:37.863Z,23.40
2022-09-14T14:39:11.899Z,23.10
2022-09-14T14:41:47.501Z,22.90
2022-09-14T14:44:28.604Z,22.80
2022-09-14T14:47:03.015Z,22.70
2022-09-14T14:49:38.282Z,22.60
2022-09-14T14:52:13.350Z,22.38
2022-09-14T14:54:48.063Z,22.10
2022-09-14T14:57:22.703Z,22.00
2022-09-14T14:59:57.354Z,22.00
2022-09-14T15:02:32.306Z,22.00
2022-09-14T15:05:07.716Z,21.98
2022-09-14T15:07:42.231Z,21.90
2022-09-14T15:10:20.007Z,21.80
2022-09-14T15:12:56.664Z,21.80
2022-09-14T15:15:35.937Z,21.80
2022-09-14T15:18:12.566Z,21.70
2022-09-14T15:20:47.429Z,21.60
2022-09-14T15:23:21.899Z,21.60
2022-09-14T15:25:59.144Z,21.64
2022-09-14T15:28:35.926Z,21.70
2022-09-14T15:31:10.146Z,21.70
2022-09-14T15:33:44.876Z,21.70
2022-09-14T15:36:41.698Z,21.60
2022-09-14T15:39:19.498Z,21.60
2022-09-14T15:41:54.500Z,21.50
2022-09-14T15:44:31.955Z,21.40
2022-09-14T15:47:08.411Z,21.30
2022-09-14T15:49:44.283Z,21.20
2022-09-14T15:52:18.552Z,21.10
2022-09-14T15:54:54.936Z,21.00
2022-09-14T15:57:30.494Z,20.90
2022-09-14T16:00:06.259Z,20.80
2022-09-14T16:02:50.276Z,20.70
2022-09-14T16:05:24.359Z,20.60
2022-09-14T16:08:00.780Z,20.50
2022-09-14T16:10:35.765Z,20.50
2022-09-14T16:13:09.763Z,20.50
2022-09-14T16:15:44.307Z,20.40
2022-09-14T16:18:18.460Z,20.40
2022-09-14T16:20:52.805Z,20.30
2022-09-14T16:23:27.122Z,20.30
2022-09-14T16:26:00.994Z,20.30
2022-09-14T16:28:35.197Z,20.20
2022-09-14T16:31:16.545Z,20.10
2022-09-14T16:33:55.382Z,20.00
2022-09-14T16:36:32.196Z,19.90
2022-09-14T16:39:10.751Z,19.90
2022-09-14T16:41:45.514Z,19.88
2022-09-14T16:44:23.041Z,19.80
2022-09-14T16:47:00.136Z,19.80
2022-09-14T16:49:36.526Z,19.76
2022-09-14T16:52:11.395Z,19.70
2022-09-14T16:54:45.699Z,19.60
2022-09-14T16:57:21.798Z,19.60
2022-09-14T16:59:56.114Z,19.50
2022-09-14T17:02:30.909Z,19.40
2022-09-14T17:05:11.531Z,19.38
2022-09-14T17:07:49.401Z,19.30
2022-09-14T17:10:24.250Z,19.20
2022-09-14T17:12:58.896Z,19.20
2022-09-14T17:15:34.992Z,19.20
2022-09-14T17:18:09.482Z,19.20
2022-09-14T17:20:52.982Z,19.10
2022-09-14T17:23:29.630Z,19.06
2022-09-14T17:26:07.965Z,19.00
2022-09-14T17:28:45.816Z,19.00
2022-09-14T17:31:27.656Z,18.90
2022-09-14T17:34:05.894Z,18.90
2022-09-14T17:36:40.717Z,18.80
2022-09-14T17:39:20.764Z,18.80
2022-09-14T17:41:55.326Z,18.70
2022-09-14T17:44:31.605Z,18.70
2022-09-14T17:47:08.456Z,18.70
2022-09-14T17:49:43.094Z,18.60
2022-09-14T17:52:17.918Z,18.66
2022-09-14T17:54:52.898Z,18.70
2022-09-14T17:57:28.052Z,18.68
2022-09-14T18:00:03.185Z,18.60
2022-09-14T18:02:39.526Z,18.58
2022-09-14T18:05:14.378Z,18.50
2022-09-14T18:07:49.430Z,18.50
2022-09-14T18:10:24.618Z,18.48
2022-09-14T18:12:59.222Z,18.50
2022-09-14T18:15:38.270Z,18.50
2022-09-14T18:18:15.928Z,18.50
2022-09-14T18:20:50.792Z,18.50
2022-09-14T18:23:26.638Z,18.50
2022-09-14T18:26:02.075Z,18.46
2022-09-14T18:28:39.356Z,18.40
2022-09-14T18:31:17.327Z,18.40
2022-09-14T18:34:01.883Z,18.40
2022-09-14T18:36:40.227Z,18.30
2022-09-14T18:39:15.584Z,18.30
2022-09-14T18:41:53.978Z,18.30
2022-09-14T18:44:30.119Z,18.30
2022-09-14T18:47:07.508Z,18.30
2022-09-14T18:49:42.177Z,18.30
2022-09-14T18:52:17.541Z,18.28
2022-09-14T18:54:52.277Z,18.24
2022-09-14T18:57:26.982Z,18.20
2022-09-14T19:00:01.154Z,18.20
2022-09-14T19:02:36.395Z,18.20
2022-09-14T19:05:12.033Z,18.20
2022-09-14T19:07:48.317Z,18.20
2022-09-14T19:10:23.318Z,18.20
2022-09-14T19:12:59.092Z,18.20
2022-09-14T19:15:35.898Z,18.16
2022-09-14T19:18:10.697Z,18.10
2022-09-14T19:21:05.965Z,18.12
2022-09-14T19:23:41.333Z,18.18
2022-09-14T19:26:22.183Z,18.10
2022-09-14T19:28:57.169Z,18.10
2022-09-14T19:31:33.630Z,18.10
2022-09-14T19:34:08.925Z,18.10
2022-09-14T19:36:43.384Z,18.10
2022-09-14T19:39:19.546Z,18.10
2022-09-14T19:41:53.695Z,18.10
2022-09-14T19:44:28.549Z,18.04
2022-09-14T19:47:03.007Z,18.00
2022-09-14T19:49:39.642Z,18.00
2022-09-14T19:52:14.682Z,18.00
2022-09-14T19:54:49.241Z,18.00
2022-09-14T19:57:23.387Z,17.90
2022-09-14T19:59:57.426Z,17.90
2022-09-14T20:02:31.553Z,17.88
2022-09-14T20:05:08.367Z,17.90
2022-09-14T20:07:42.909Z,17.90
2022-09-14T20:10:18.442Z,17.96
2022-09-14T20:12:52.358Z,17.90
2022-09-14T20:15:26.967Z,17.90
2022-09-14T20:18:01.404Z,17.96
2022-09-14T20:20:38.634Z,18.00
2022-09-14T20:23:12.547Z,18.00
2022-09-14T20:25:47.278Z,18.00
2022-09-14T20:28:26.130Z,18.00
2022-09-14T20:31:05.423Z,18.00
2022-09-14T20:33:41.221Z,18.00
2022-09-14T20:36:19.031Z,18.00
2022-09-14T20:38:56.411Z,18.10
2022-09-14T20:41:32.075Z,18.10
2022-09-14T20:44:08.299Z,18.08
2022-09-14T20:46:44.482Z,18.06
2022-09-14T20:49:23.557Z,18.04
2022-09-14T20:51:59.325Z,18.02
2022-09-14T20:54:33.716Z,18.04
2022-09-14T20:57:08.217Z,18.02
2022-09-14T20:59:42.049Z,18.00
2022-09-14T21:02:15.901Z,18.00
2022-09-14T21:04:50.173Z,18.02
2022-09-14T21:07:24.063Z,18.10
2022-09-14T21:10:00.619Z,18.02
2022-09-14T21:12:36.804Z,18.00
2022-09-14T21:15:17.316Z,18.00
2022-09-14T21:17:58.472Z,18.00
2022-09-14T21:20:36.653Z,18.00
2022-09-14T21:23:13.301Z,18.00
2022-09-14T21:25:59.698Z,18.00
2022-09-14T21:28:35.108Z,18.00
2022-09-14T21:31:16.776Z,18.00
2022-09-14T21:33:58.983Z,18.04
2022-09-14T21:36:41.600Z,18.00
2022-09-14T21:39:23.381Z,18.00
2022-09-14T21:42:01.197Z,18.00
2022-09-14T21:44:38.658Z,18.00
2022-09-14T21:47:14.543Z,18.10
2022-09-14T21:49:50.764Z,18.10
2022-09-14T21:52:26.171Z,18.10
2022-09-14T21:55:01.044Z,18.10
2022-09-14T21:57:35.615Z,18.10
2022-09-14T22:00:15.310Z,18.10
2022-09-14T22:02:53.320Z,18.10
2022-09-14T22:05:28.388Z,18.10
2022-09-14T22:08:03.742Z,18.08
2022-09-14T22:10:41.655Z,18.00
2022-09-14T22:13:16.675Z,18.00
2022-09-14T22:15:51.444Z,18.04
2022-09-14T22:18:26.598Z,18.08
2022-09-14T22:21:05.309Z,18.10
2022-09-14T22:23:41.941Z,18.10
2022-09-14T22:26:16.983Z,18.10
2022-09-14T22:28:53.751Z,18.10
2022-09-14T22:31:30.604Z,18.10
2022-09-14T22:34:05.428Z,18.00
2022-09-14T22:36:41.575Z,18.00
2022-09-14T22:39:17.426Z,18.00
2022-09-14T22:41:52.908Z,18.00
2022-09-14T22:44:29.294Z,18.02
2022-09-14T22:47:04.106Z,18.00
2022-09-14T22:49:38.803Z,18.00
2022-09-14T22:52:13.191Z,18.00
2022-09-14T22:54:47.437Z,17.90
2022-09-14T22:57:24.214Z,17.90
2022-09-14T22:59:58.724Z,17.90
2022-09-14T23:02:33.360Z,17.90
2022-09-14T23:05:09.882Z,17.80
2022-09-14T23:07:44.200Z,17.80
2022-09-14T23:10:18.988Z,17.80
2022-09-14T23:12:53.522Z,17.80
2022-09-14T23:15:28.049Z,17.80
2022-09-14T23:18:02.112Z,17.80
2022-09-14T23:20:38.968Z,17.78
2022-09-14T23:23:14.293Z,17.70
2022-09-14T23:25:48.815Z,17.70
2022-09-14T23:28:22.900Z,17.60
2022-09-14T23:30:59.580Z,17.50
2022-09-14T23:33:34.201Z,17.46
2022-09-14T23:36:08.962Z,17.40
2022-09-14T23:38:43.426Z,17.40
2022-09-14T23:41:17.877Z,17.40
2022-09-14T23:43:52.110Z,17.36
2022-09-14T23:46:26.550Z,17.32
2022-09-14T23:49:00.442Z,17.36
2022-09-14T23:51:34.412Z,17.30
2022-09-14T23:54:09.103Z,17.30
2022-09-14T23:56:42.811Z,17.30
2022-09-14T23:59:18.064Z,17.30
